Time;durP1;ratioP1;P1;durP2;ratioP2;P2;SDS_P1;SDS_P2;PMS_P1;PMS_P2;Temp;Humidity;BMP_temperature;BMP_pressure;BME280_temperature;BME280_humidity;BME280_pressure;Samples;Min_cycle;Max_cycle;Signal;HPM_P1;HPM_P2
2023/07/25 00:04:25;;;;;;;17.00;11.68;;;;;;;20.40;75.62;97176.56;10285302;28;20113;-52
2023/07/25 00:09:24;;;;;;;18.85;12.60;;;;;;;20.27;75.22;97189.47;10284505;28;20087;-52
2023/07/25 00:14:23;;;;;;;19.48;13.68;;;;;;;20.32;75.66;97239.31;10285211;28;20034;-52
2023/07/25 00:19:22;;;;;;;19.10;12.50;;;;;;;20.14;77.43;97231.38;10283508;28;20490;-51
2023/07/25 00:24:21;;;;;;;20.50;13.15;;;;;;;20.02;77.45;97221.41;10284347;28;20133;-52
2023/07/25 00:29:20;;;;;;;17.30;11.88;;;;;;;20.03;77.20;97209.97;10287992;28;20042;-50
2023/07/25 00:34:19;;;;;;;21.55;12.65;;;;;;;19.96;77.35;97212.03;10286812;28;20120;-51
2023/07/25 00:39:18;;;;;;;17.08;12.35;;;;;;;19.89;78.65;97209.78;10289524;28;20488;-51
2023/07/25 00:44:17;;;;;;;20.15;12.65;;;;;;;19.77;79.01;97185.72;10286825;28;20531;-52
2023/07/25 00:49:16;;;;;;;18.80;13.45;;;;;;;19.80;78.51;97185.56;10287202;28;20052;-52
2023/07/25 00:54:15;;;;;;;17.63;12.95;;;;;;;19.79;77.95;97190.91;10286255;28;20069;-52
2023/07/25 00:59:14;;;;;;;20.00;13.05;;;;;;;19.77;77.97;97175.19;10285135;28;20060;-50
2023/07/25 01:04:13;;;;;;;18.73;12.60;;;;;;;19.64;78.53;97180.16;10285774;28;20124;-51
2023/07/25 01:09:12;;;;;;;20.77;13.10;;;;;;;19.53;80.73;97178.91;10284990;28;20030;-52
2023/07/25 01:14:11;;;;;;;24.67;14.20;;;;;;;19.55;81.48;97172.66;10286626;28;20042;-53
2023/07/25 01:19:10;;;;;;;25.08;14.13;;;;;;;19.58;81.60;97171.69;10285074;28;20037;-51
2023/07/25 01:24:10;;;;;;;21.60;13.95;;;;;;;19.64;81.11;97171.41;10283304;28;20065;-52
2023/07/25 01:29:09;;;;;;;18.27;13.48;;;;;;;19.64;81.24;97171.41;10282271;28;20065;-53
2023/07/25 01:34:08;;;;;;;20.05;12.55;;;;;;;19.54;82.07;97172.75;10283083;28;20049;-50
2023/07/25 01:39:07;;;;;;;19.25;13.57;;;;;;;19.52;82.56;97166.69;10280960;28;20041;-52
2023/07/25 01:44:06;;;;;;;18.55;12.85;;;;;;;19.48;82.70;97178.28;10282290;28;20152;-52
2023/07/25 01:49:05;;;;;;;17.92;12.73;;;;;;;19.42;82.77;97169.75;10281426;28;20060;-52
2023/07/25 01:54:05;;;;;;;21.42;13.90;;;;;;;19.26;83.14;97188.94;10279412;28;20041;-50
2023/07/25 01:59:04;;;;;;;19.60;13.65;;;;;;;19.08;83.71;97165.16;10281878;28;20078;-52
2023/07/25 02:04:03;;;;;;;23.42;14.50;;;;;;;18.91;84.98;97178.22;10279898;28;20048;-51
2023/07/25 02:09:02;;;;;;;20.45;13.65;;;;;;;18.79;85.92;97190.97;10280940;28;20113;-52
2023/07/25 02:14:01;;;;;;;21.15;14.40;;;;;;;18.76;86.31;97190.22;10281092;28;20573;-49
2023/07/25 02:19:00;;;;;;;21.23;14.90;;;;;;;18.66;87.29;97200.25;10278781;28;20038;-51
2023/07/25 02:24:00;;;;;;;21.33;13.93;;;;;;;18.60;87.29;97164.59;10282721;28;20799;-50
2023/07/25 02:28:59;;;;;;;20.95;14.73;;;;;;;18.78;87.16;97162.09;10280130;28;20496;-52
2023/07/25 02:33:58;;;;;;;23.35;15.38;;;;;;;18.77;88.04;97165.66;10278090;28;20052;-52
2023/07/25 02:38:57;;;;;;;21.95;14.15;;;;;;;18.80;88.01;97168.16;10280196;28;20626;-52
2023/07/25 02:43:56;;;;;;;21.98;14.13;;;;;;;18.76;88.24;97188.47;10280500;28;20530;-49
2023/07/25 02:48:55;;;;;;;20.60;13.90;;;;;;;18.92;87.43;97167.59;10280299;28;20140;-51
2023/07/25 02:53:55;;;;;;;21.83;13.40;;;;;;;19.06;86.67;97171.41;10277992;28;20026;-49
2023/07/25 02:58:55;;;;;;;19.35;13.18;;;;;;;18.93;86.49;97165.84;10276164;28;20576;-51
2023/07/25 03:03:54;;;;;;;24.27;14.45;;;;;;;19.01;86.02;97161.94;10280724;28;20496;-51
2023/07/25 03:08:53;;;;;;;22.13;14.35;;;;;;;18.85;87.07;97173.19;10279147;28;20122;-50
2023/07/25 03:13:52;;;;;;;24.27;14.25;;;;;;;18.79;87.17;97158.56;10279474;28;20112;-51
2023/07/25 03:18:51;;;;;;;26.83;15.15;;;;;;;18.81;87.40;97148.84;10277647;28;20056;-52
2023/07/25 03:23:50;;;;;;;22.95;13.50;;;;;;;18.85;87.23;97157.44;10280272;28;20044;-51
2023/07/25 03:28:49;;;;;;;23.13;14.60;;;;;;;18.98;86.80;97148.94;10282071;28;20034;-51
2023/07/25 03:33:48;;;;;;;22.02;13.55;;;;;;;18.99;87.12;97148.03;10279885;28;20048;-51
2023/07/25 03:38:46;;;;;;;22.48;14.52;;;;;;;19.20;86.08;97151.44;10297845;28;20042;-50
2023/07/25 03:43:45;;;;;;;21.67;13.65;;;;;;;19.13;85.84;97155.28;10281661;28;20052;-51
2023/07/25 03:48:44;;;;;;;23.05;14.70;;;;;;;19.21;83.97;97144.44;10278814;28;20442;-52
2023/07/25 03:53:43;;;;;;;26.08;15.40;;;;;;;19.19;84.10;97147.13;10282833;28;20113;-52
2023/07/25 03:58:42;;;;;;;21.30;13.90;;;;;;;19.09;84.24;97135.31;10287718;28;20035;-50
2023/07/25 04:03:41;;;;;;;22.02;14.05;;;;;;;19.10;84.38;97130.91;10286848;28;20310;-51
2023/07/25 04:08:40;;;;;;;24.25;14.88;;;;;;;19.18;84.29;97145.44;10289067;28;20045;-52
2023/07/25 04:13:39;;;;;;;28.27;14.48;;;;;;;19.34;83.89;97145.56;10288574;28;20036;-49
2023/07/25 04:18:38;;;;;;;19.48;13.52;;;;;;;19.49;82.92;97137.91;10288937;28;20484;-49
2023/07/25 04:23:37;;;;;;;22.08;13.55;;;;;;;19.72;81.82;97156.13;10287615;28;20494;-52
2023/07/25 04:28:36;;;;;;;27.02;14.00;;;;;;;19.70;82.02;97133.41;10283751;28;20033;-52
2023/07/25 04:33:35;;;;;;;31.80;13.95;;;;;;;19.92;81.82;97149.91;10285050;28;20056;-50
2023/07/25 04:38:34;;;;;;;26.27;15.35;;;;;;;20.16;81.27;97142.56;10282741;28;20026;-49
2023/07/25 04:43:33;;;;;;;22.73;14.10;;;;;;;20.31;80.17;97142.75;10283766;28;20789;-51
2023/07/25 04:48:32;;;;;;;21.80;13.43;;;;;;;20.55;78.84;97136.28;10284734;28;20042;-52
2023/07/25 04:53:32;;;;;;;21.88;13.23;;;;;;;20.76;78.14;97133.47;10283454;28;20220;-50
2023/07/25 04:58:31;;;;;;;22.48;12.32;;;;;;;20.99;76.50;97119.94;10282024;28;20125;-52
2023/07/25 05:03:30;;;;;;;19.15;12.52;;;;;;;21.33;74.74;97123.41;10255939;28;20050;-51
2023/07/25 05:08:28;;;;;;;22.83;12.93;;;;;;;21.43;73.28;97106.16;10282575;28;20121;-51
2023/07/25 05:13:27;;;;;;;19.83;12.07;;;;;;;21.85;71.82;97123.19;10281000;28;20044;-49
2023/07/25 05:18:26;;;;;;;19.38;12.05;;;;;;;22.02;70.73;97119.59;10283150;28;20095;-53
2023/07/25 05:23:25;;;;;;;23.10;12.98;;;;;;;22.34;70.16;97112.47;10285838;28;20038;-51
2023/07/25 05:28:24;;;;;;;19.05;11.65;;;;;;;22.59;67.41;97113.63;10282206;28;20148;-52
2023/07/25 05:33:23;;;;;;;19.42;12.32;;;;;;;22.90;68.21;97114.44;10281123;28;20049;-52
2023/07/25 05:38:22;;;;;;;25.67;13.00;;;;;;;23.28;66.10;97111.22;10279248;28;20042;-52
2023/07/25 05:43:24;;;;;;;21.20;12.63;;;;;;;23.62;63.52;97110.81;10282155;28;20129;-51
2023/07/25 05:48:23;;;;;;;23.23;12.48;;;;;;;24.11;62.75;97105.94;10279440;28;20073;-52
2023/07/25 05:53:22;;;;;;;19.83;11.60;;;;;;;24.47;61.78;97094.69;10281362;28;20042;-49
2023/07/25 05:58:21;;;;;;;20.85;11.75;;;;;;;24.85;60.72;97085.94;10278179;28;20042;-50
2023/07/25 06:03:20;;;;;;;22.77;12.40;;;;;;;25.06;58.72;97076.50;10279371;28;20036;-50
2023/07/25 06:08:19;;;;;;;20.08;10.75;;;;;;;25.49;58.38;97091.16;10279099;28;20128;-52
2023/07/25 06:13:18;;;;;;;22.88;12.38;;;;;;;25.85;56.08;97095.63;10279000;28;20121;-49
2023/07/25 06:18:17;;;;;;;24.50;11.93;;;;;;;26.18;55.77;97091.44;10279904;28;20117;-51
2023/07/25 06:23:16;;;;;;;21.50;11.55;;;;;;;26.50;55.36;97075.72;10280478;28;20033;-52
2023/07/25 06:28:15;;;;;;;23.60;11.80;;;;;;;26.90;55.54;97070.00;10282754;28;20456;-53
2023/07/25 06:33:15;;;;;;;36.25;12.95;;;;;;;27.28;54.44;97063.47;10280906;28;20140;-52
2023/07/25 06:38:14;;;;;;;22.60;11.63;;;;;;;27.70;53.76;97047.66;10278677;28;20497;-50
2023/07/25 06:43:13;;;;;;;23.10;10.73;;;;;;;28.08;49.73;97043.69;10279993;28;20466;-52
2023/07/25 06:48:12;;;;;;;20.70;10.43;;;;;;;28.56;48.39;97047.69;10278895;28;20128;-51
2023/07/25 06:53:11;;;;;;;22.67;10.88;;;;;;;29.04;44.93;97042.63;10277455;28;20494;-50
2023/07/25 06:58:10;;;;;;;23.48;11.32;;;;;;;29.36;46.85;97024.75;10277321;28;20088;-52
2023/07/25 07:03:09;;;;;;;33.85;10.75;;;;;;;29.77;42.18;97029.03;10269987;28;20034;-52
2023/07/25 07:08:08;;;;;;;23.15;9.52;;;;;;;30.18;38.80;97032.44;10279720;28;20113;-52
2023/07/25 07:13:07;;;;;;;30.90;9.40;;;;;;;30.51;36.78;97025.81;10277245;28;20046;-52
2023/07/25 07:18:06;;;;;;;21.42;9.02;;;;;;;30.82;34.66;97022.06;10275092;28;20034;-52
2023/07/25 07:23:05;;;;;;;19.70;9.57;;;;;;;31.17;35.66;97014.19;10278341;28;20533;-50
2023/07/25 07:28:04;;;;;;;23.40;9.07;;;;;;;31.30;33.92;96989.72;10278174;28;20125;-52
2023/07/25 07:33:03;;;;;;;22.10;8.30;;;;;;;31.75;33.06;97012.16;10286174;28;20133;-52
2023/07/25 07:38:03;;;;;;;20.85;8.38;;;;;;;32.08;33.29;97023.22;10284150;28;20049;-49
2023/07/25 07:43:02;;;;;;;17.98;9.00;;;;;;;32.24;32.32;97012.63;10287434;28;20068;-51
2023/07/25 07:48:01;;;;;;;22.52;9.05;;;;;;;32.40;31.67;97017.28;10284883;28;20023;-52
2023/07/25 07:53:00;;;;;;;25.05;10.30;;;;;;;32.64;31.30;97008.56;10287002;28;20037;-52
2023/07/25 07:58:00;;;;;;;23.90;10.15;;;;;;;32.85;32.24;97005.50;10285894;28;20514;-51
2023/07/25 08:02:59;;;;;;;21.70;9.30;;;;;;;32.91;30.79;96998.66;10284502;28;20080;-52
2023/07/25 08:07:58;;;;;;;19.65;9.48;;;;;;;33.19;30.52;96999.34;10285602;28;20026;-51
2023/07/25 08:12:56;;;;;;;19.30;9.00;;;;;;;33.30;30.81;96979.34;10283742;28;20412;-52
2023/07/25 08:17:55;;;;;;;21.20;8.75;;;;;;;33.64;30.46;96992.75;10282808;28;20025;-52
2023/07/25 08:22:54;;;;;;;19.35;8.85;;;;;;;33.84;29.62;96979.81;10288039;28;20141;-52
2023/07/25 08:27:53;;;;;;;20.95;9.15;;;;;;;33.91;29.64;96975.47;10288170;28;20125;-52
2023/07/25 08:32:52;;;;;;;15.93;8.63;;;;;;;34.08;29.87;96982.53;10289652;28;20049;-52
2023/07/25 08:37:51;;;;;;;17.58;9.10;;;;;;;34.31;29.59;96973.81;10287652;28;20056;-52
2023/07/25 08:42:51;;;;;;;24.80;9.70;;;;;;;34.42;29.27;96957.28;10285516;28;20116;-52
2023/07/25 08:47:52;;;;;;;23.33;9.40;;;;;;;34.60;29.36;96953.53;10288231;28;20137;-52
2023/07/25 08:52:52;;;;;;;19.30;10.20;;;;;;;34.69;29.38;96939.06;10286038;28;20062;-52
2023/07/25 08:57:52;;;;;;;19.02;9.13;;;;;;;34.90;27.45;96946.56;10287281;28;20061;-53
2023/07/25 09:02:53;;;;;;;18.27;8.43;;;;;;;35.00;28.27;96939.09;10287690;28;20488;-52
2023/07/25 09:07:53;;;;;;;20.52;8.02;;;;;;;35.10;27.89;96941.63;10285476;28;20053;-51
2023/07/25 09:12:53;;;;;;;19.75;8.40;;;;;;;35.22;27.27;96942.94;10285986;28;20484;-51
2023/07/25 09:17:53;;;;;;;16.45;8.50;;;;;;;35.32;27.17;96950.78;10284598;28;20061;-51
2023/07/25 09:22:52;;;;;;;19.92;8.45;;;;;;;35.45;26.96;96947.50;10286313;28;20065;-52
2023/07/25 09:27:54;;;;;;;21.67;8.60;;;;;;;35.61;26.93;96938.50;10282009;28;20132;-51
2023/07/25 09:32:53;;;;;;;17.88;8.35;;;;;;;35.79;25.94;96938.19;10277548;28;20148;-51
2023/07/25 09:37:55;;;;;;;27.90;7.95;;;;;;;36.04;25.28;96931.56;10279949;28;20505;-52
2023/07/25 09:42:54;;;;;;;18.55;8.40;;;;;;;36.10;24.18;96933.56;10279557;28;20125;-51
2023/07/25 09:47:53;;;;;;;21.45;8.20;;;;;;;35.95;23.88;96927.25;10280720;28;20121;-51
2023/07/25 09:52:52;;;;;;;16.05;8.23;;;;;;;36.06;24.73;96915.16;10280447;28;20100;-53
2023/07/25 09:57:52;;;;;;;17.98;7.82;;;;;;;36.29;24.21;96917.84;10280112;28;20037;-52
2023/07/25 10:02:51;;;;;;;20.80;8.50;;;;;;;36.50;24.39;96904.44;10280335;28;20069;-53
2023/07/25 10:07:52;;;;;;;17.13;7.95;;;;;;;36.90;25.18;96894.19;10280469;28;20116;-52
2023/07/25 10:12:55;;;;;;;17.90;8.05;;;;;;;37.10;23.52;96886.38;10279489;28;20136;-52
2023/07/25 10:18:01;;;;;;;22.98;8.57;;;;;;;37.34;23.46;96885.16;10272380;28;20132;-52
2023/07/25 10:23:09;;;;;;;22.90;8.13;;;;;;;37.08;23.36;96884.88;10272655;28;20136;-52
2023/07/25 10:28:09;;;;;;;19.27;8.15;;;;;;;37.38;23.99;96870.22;10283673;28;20112;-53
2023/07/25 10:33:08;;;;;;;23.48;7.95;;;;;;;37.46;22.82;96868.41;10279753;28;20168;-53
2023/07/25 10:38:09;;;;;;;17.45;8.60;;;;;;;37.46;22.98;96854.88;10280396;28;20061;-51
2023/07/25 10:43:08;;;;;;;16.05;7.70;;;;;;;37.52;22.39;96852.28;10279494;28;20073;-52
2023/07/25 10:48:27;;;;;;;18.00;8.13;;;;;;;37.68;22.79;96845.75;10279620;28;20036;-52
2023/07/25 10:53:26;;;;;;;17.67;7.90;;;;;;;37.65;22.13;96840.72;10279139;28;20082;-53
2023/07/25 10:58:25;;;;;;;18.63;8.43;;;;;;;37.88;23.21;96831.53;10282772;28;20157;-52
2023/07/25 11:03:28;;;;;;;16.95;8.27;;;;;;;38.15;23.63;96822.59;10281798;28;20042;-51
2023/07/25 11:08:29;;;;;;;14.45;7.50;;;;;;;38.38;23.51;96805.22;10285639;28;20121;-51
2023/07/25 11:13:29;;;;;;;18.83;8.18;;;;;;;38.71;23.49;96791.81;10287694;28;20080;-52
2023/07/25 11:18:28;;;;;;;21.45;9.05;;;;;;;38.85;22.53;96785.44;10286571;28;20113;-51
2023/07/25 11:23:27;;;;;;;24.25;9.15;;;;;;;38.88;23.74;96785.00;10285420;28;20062;-52
2023/07/25 11:28:26;;;;;;;17.70;8.32;;;;;;;38.97;23.78;96780.25;10296363;28;20029;-52
2023/07/25 11:33:25;;;;;;;18.88;8.75;;;;;;;39.08;22.77;96784.22;10288911;28;20413;-51
2023/07/25 11:38:24;;;;;;;20.05;8.07;;;;;;;39.19;20.72;96777.34;10296042;28;20471;-53
2023/07/25 11:43:28;;;;;;;20.70;8.15;;;;;;;38.97;21.30;96768.53;10289341;28;20045;-54
2023/07/25 11:48:28;;;;;;;25.20;7.55;;;;;;;38.84;18.88;96769.34;10288972;28;20070;-54
2023/07/25 11:53:28;;;;;;;17.27;7.22;;;;;;;39.01;20.16;96762.50;10289507;28;20104;-52
2023/07/25 11:58:27;;;;;;;20.33;7.70;;;;;;;39.41;19.61;96757.13;10286285;28;20145;-52
2023/07/25 12:03:26;;;;;;;16.67;6.57;;;;;;;39.60;19.30;96741.03;10290015;28;20077;-52
2023/07/25 12:08:41;;;;;;;19.77;7.45;;;;;;;39.89;18.55;96746.06;10286204;28;20496;-51
2023/07/25 12:13:56;;;;;;;16.88;6.93;;;;;;;39.89;18.43;96737.91;10287701;28;20053;-51
2023/07/25 12:18:58;;;;;;;19.98;6.30;;;;;;;40.02;18.50;96736.19;10288029;28;20467;-52
2023/07/25 12:24:00;;;;;;;27.70;7.30;;;;;;;40.14;18.33;96723.66;10284996;28;20504;-52
2023/07/25 12:28:59;;;;;;;18.98;6.68;;;;;;;40.22;17.34;96696.22;10285443;28;20555;-50
2023/07/25 12:33:58;;;;;;;18.02;6.97;;;;;;;40.53;17.71;96705.50;10264871;28;20515;-52
2023/07/25 12:38:57;;;;;;;18.77;7.22;;;;;;;40.73;17.92;96700.81;10284452;28;20426;-52
2023/07/25 12:43:56;;;;;;;20.20;7.25;;;;;;;40.73;17.00;96697.28;10283425;28;20495;-52
2023/07/25 12:48:55;;;;;;;25.40;6.70;;;;;;;40.72;16.85;96671.94;10282577;28;20037;-52
2023/07/25 12:53:54;;;;;;;15.60;6.78;;;;;;;40.88;17.53;96669.75;10283937;28;20072;-53
2023/07/25 12:58:54;;;;;;;23.17;7.07;;;;;;;41.04;16.73;96666.50;10281982;28;20042;-52
2023/07/25 13:03:53;;;;;;;13.85;6.47;;;;;;;41.17;18.04;96662.81;10283184;28;20076;-53
2023/07/25 13:08:52;;;;;;;18.98;7.78;;;;;;;41.34;17.96;96658.50;10283358;28;20034;-52
2023/07/25 13:13:52;;;;;;;17.38;7.35;;;;;;;41.53;18.54;96656.66;10282347;28;20141;-53
2023/07/25 13:18:50;;;;;;;15.63;7.15;;;;;;;41.61;17.97;96635.63;10287423;28;20900;-52
2023/07/25 13:23:49;;;;;;;16.13;6.38;;;;;;;41.74;18.12;96632.78;10279945;28;20030;-52
2023/07/25 13:28:48;;;;;;;15.90;6.93;;;;;;;41.63;15.91;96625.34;10282192;28;20030;-52
2023/07/25 13:33:47;;;;;;;18.58;6.68;;;;;;;41.84;16.93;96633.09;10279489;28;20050;-52
2023/07/25 13:38:47;;;;;;;16.88;6.15;;;;;;;41.89;16.47;96627.78;10275427;28;20221;-51
2023/07/25 13:43:46;;;;;;;23.52;7.18;;;;;;;41.83;16.89;96628.72;10277303;28;20034;-50
2023/07/25 13:48:47;;;;;;;44.85;8.32;;;;;;;41.76;15.26;96612.41;10276220;28;20041;-52
2023/07/25 13:53:46;;;;;;;19.08;6.35;;;;;;;41.86;16.12;96611.06;10273818;28;20136;-51
2023/07/25 13:58:46;;;;;;;16.98;6.75;;;;;;;41.84;15.18;96608.56;10281050;28;20125;-52
2023/07/25 14:03:45;;;;;;;17.77;5.88;;;;;;;41.79;16.60;96609.25;10274389;28;20571;-51
2023/07/25 14:08:44;;;;;;;15.93;6.70;;;;;;;42.00;16.93;96596.22;10280338;28;20038;-52
2023/07/25 14:13:43;;;;;;;14.77;6.28;;;;;;;42.14;15.78;96594.16;10277554;28;20145;-52
2023/07/25 14:18:42;;;;;;;15.88;6.60;;;;;;;42.35;16.29;96609.19;10279190;28;20045;-54
2023/07/25 14:23:41;;;;;;;16.17;7.38;;;;;;;42.49;17.12;96591.56;10280321;28;20041;-50
2023/07/25 14:28:40;;;;;;;19.85;7.22;;;;;;;42.44;17.37;96593.34;10281636;28;20069;-51
2023/07/25 14:33:39;;;;;;;18.50;6.78;;;;;;;42.32;16.70;96587.81;10283340;28;20097;-53
2023/07/25 14:38:40;;;;;;;17.85;5.97;;;;;;;41.99;15.69;96600.84;10280555;28;20029;-53
2023/07/25 14:43:39;;;;;;;15.55;6.10;;;;;;;41.89;16.31;96589.63;10283881;28;20474;-53
2023/07/25 14:48:38;;;;;;;19.80;6.10;;;;;;;41.74;15.97;96591.91;10284579;28;20492;-51
2023/07/25 14:53:37;;;;;;;17.73;5.63;;;;;;;41.73;16.67;96582.91;10281493;28;20054;-51
2023/07/25 14:58:36;;;;;;;15.45;6.15;;;;;;;41.52;15.99;96572.47;10283462;28;20488;-52
2023/07/25 15:03:35;;;;;;;14.77;5.57;;;;;;;41.30;15.74;96574.78;10282786;28;20498;-52
2023/07/25 15:08:34;;;;;;;17.10;6.00;;;;;;;41.18;16.33;96570.06;10284297;28;20049;-51
2023/07/25 15:13:33;;;;;;;19.95;5.50;;;;;;;41.01;16.11;96571.72;10280955;28;20362;-51
2023/07/25 15:18:32;;;;;;;16.35;6.22;;;;;;;40.87;16.66;96565.53;10283268;28;20056;-50
2023/07/25 15:23:30;;;;;;;17.00;5.50;;;;;;;40.85;16.58;96572.25;10281808;28;20131;-51
2023/07/25 15:28:29;;;;;;;15.55;5.53;;;;;;;40.66;17.20;96536.00;10277534;28;20029;-50
2023/07/25 15:33:28;;;;;;;18.42;6.13;;;;;;;40.87;17.32;96570.16;10278848;28;20104;-52
2023/07/25 15:38:27;;;;;;;16.45;6.43;;;;;;;41.00;18.10;96572.75;10277802;28;20026;-52
2023/07/25 15:43:26;;;;;;;13.48;6.18;;;;;;;41.01;17.53;96571.72;10278350;28;20369;-51
2023/07/25 15:48:25;;;;;;;17.20;6.20;;;;;;;40.93;17.08;96559.19;10278893;28;20448;-51
2023/07/25 15:53:24;;;;;;;15.43;5.13;;;;;;;40.90;17.38;96567.78;10283852;28;20149;-51
2023/07/25 15:58:23;;;;;;;16.17;5.90;;;;;;;40.81;18.10;96562.88;10285398;28;20129;-51
2023/07/25 16:03:22;;;;;;;12.50;5.80;;;;;;;40.70;18.03;96567.97;10284789;28;20034;-52
2023/07/25 16:08:21;;;;;;;19.33;6.40;;;;;;;40.61;18.59;96566.59;10283890;28;20030;-52
2023/07/25 16:13:20;;;;;;;16.05;5.85;;;;;;;40.44;18.06;96565.41;10287426;28;20066;-52
2023/07/25 16:18:19;;;;;;;19.25;6.43;;;;;;;40.23;19.08;96550.28;10285292;28;20041;-52
2023/07/25 16:23:18;;;;;;;19.45;5.95;;;;;;;40.21;19.28;96561.41;10284803;28;20046;-52
2023/07/25 16:28:17;;;;;;;18.60;5.90;;;;;;;39.91;19.30;96561.94;10284865;28;20105;-51
2023/07/25 16:33:16;;;;;;;14.70;4.82;;;;;;;39.65;19.50;96562.88;10283975;28;20042;-52
2023/07/25 16:38:15;;;;;;;19.90;6.45;;;;;;;39.24;19.94;96571.31;10285017;28;20121;-50
2023/07/25 16:43:14;;;;;;;18.45;5.63;;;;;;;38.75;20.11;96570.72;10280289;28;20531;-51
2023/07/25 16:48:13;;;;;;;19.85;6.30;;;;;;;37.83;25.21;96583.81;10283458;28;20458;-52
2023/07/25 16:53:12;;;;;;;19.88;6.47;;;;;;;36.78;28.60;96587.50;10283930;28;20349;-52
2023/07/25 16:58:11;;;;;;;25.38;7.93;;;;;;;36.27;29.12;96593.03;10283871;28;20040;-51
2023/07/25 17:03:10;;;;;;;21.08;6.47;;;;;;;36.01;30.21;96601.66;10282644;28;20507;-52
2023/07/25 17:08:09;;;;;;;25.35;6.90;;;;;;;35.66;30.38;96598.72;10281593;28;20547;-52
2023/07/25 17:13:13;;;;;;;20.98;6.97;;;;;;;35.41;31.08;96600.84;10283503;28;20065;-54
2023/07/25 17:18:12;;;;;;;20.98;7.03;;;;;;;35.06;29.88;96593.28;10282652;28;20804;-51
2023/07/25 17:23:11;;;;;;;15.18;6.85;;;;;;;34.61;29.35;96578.03;10279755;28;20116;-49
2023/07/25 17:28:10;;;;;;;20.60;7.60;;;;;;;34.44;29.79;96588.91;10256366;28;20578;-49
2023/07/25 17:33:09;;;;;;;15.25;7.07;;;;;;;34.17;30.33;96602.88;10282019;28;20066;-52
2023/07/25 17:38:08;;;;;;;19.65;7.75;;;;;;;33.75;31.08;96587.97;10281332;28;20069;-53
2023/07/25 17:43:07;;;;;;;27.77;8.43;;;;;;;33.46;31.17;96586.69;10287519;28;20077;-53
2023/07/25 17:48:06;;;;;;;16.42;7.68;;;;;;;33.00;31.11;96556.91;10279812;28;20038;-52
2023/07/25 17:53:05;;;;;;;19.77;8.45;;;;;;;32.97;31.24;96584.94;10278903;28;20066;-52
2023/07/25 17:58:04;;;;;;;20.30;7.43;;;;;;;32.84;31.23;96582.81;10280761;28;20127;-52
2023/07/25 18:03:03;;;;;;;16.35;7.38;;;;;;;32.62;31.77;96570.03;10281085;28;20029;-52
2023/07/25 18:08:02;;;;;;;17.55;8.25;;;;;;;32.51;31.94;96578.44;10281098;28;20025;-52
2023/07/25 18:13:01;;;;;;;20.02;8.48;;;;;;;32.13;35.46;96575.38;10278836;28;20481;-52
2023/07/25 18:18:00;;;;;;;23.05;9.40;;;;;;;31.65;36.64;96579.59;10280029;28;20418;-52
2023/07/25 18:22:59;;;;;;;28.08;8.52;;;;;;;31.24;38.66;96595.44;10280138;28;20038;-50
2023/07/25 18:27:58;;;;;;;20.73;9.38;;;;;;;30.88;38.06;96584.81;10277448;28;20109;-52
2023/07/25 18:32:57;;;;;;;21.98;9.13;;;;;;;30.47;38.70;96576.50;10279463;28;20046;-51
2023/07/25 18:37:58;;;;;;;24.23;9.07;;;;;;;30.40;39.65;96570.91;10277031;28;20539;-52
2023/07/25 18:42:57;;;;;;;23.13;8.43;;;;;;;30.15;39.52;96564.47;10279567;28;20066;-50
2023/07/25 18:47:56;;;;;;;20.45;9.35;;;;;;;29.93;40.18;96549.72;10279157;28;20028;-53
2023/07/25 18:52:55;;;;;;;18.73;8.70;;;;;;;29.67;39.26;96530.84;10276932;28;20116;-51
2023/07/25 18:57:54;;;;;;;19.92;9.02;;;;;;;29.68;37.02;96503.97;10279927;28;20044;-51
2023/07/25 19:02:53;;;;;;;19.67;9.32;;;;;;;29.83;35.53;96508.78;10278614;28;20037;-52
2023/07/25 19:07:52;;;;;;;21.08;7.97;;;;;;;30.07;35.28;96514.41;10278453;28;20030;-51
2023/07/25 19:12:51;;;;;;;19.33;8.13;;;;;;;30.25;34.47;96501.00;10279786;28;20041;-48
2023/07/25 19:17:50;;;;;;;17.90;8.50;;;;;;;30.48;34.12;96481.81;10278327;28;20034;-50
2023/07/25 19:22:49;;;;;;;18.38;8.50;;;;;;;30.54;34.76;96498.06;10279043;28;20030;-49
2023/07/25 19:27:48;;;;;;;21.85;8.38;;;;;;;30.64;33.19;96486.44;10289211;28;20524;-49
2023/07/25 19:32:47;;;;;;;17.35;7.88;;;;;;;30.82;32.65;96480.97;10290183;28;20089;-50
2023/07/25 19:37:46;;;;;;;15.27;7.57;;;;;;;30.94;32.24;96488.59;10288591;28;20130;-53
2023/07/25 19:42:44;;;;;;;17.67;8.00;;;;;;;31.06;32.66;96502.59;10289941;28;20092;-52
2023/07/25 19:47:44;;;;;;;19.05;7.90;;;;;;;30.88;34.42;96509.81;10290175;28;20080;-50
2023/07/25 19:52:43;;;;;;;19.08;7.65;;;;;;;30.46;35.51;96498.00;10288835;28;20069;-52
2023/07/25 19:57:41;;;;;;;14.80;8.02;;;;;;;30.17;36.22;96495.59;10288105;28;20125;-49
2023/07/25 20:02:40;;;;;;;20.25;7.95;;;;;;;29.89;35.29;96503.72;10288497;28;20120;-51
2023/07/25 20:07:39;;;;;;;17.45;7.90;;;;;;;29.99;35.14;96508.13;10286897;28;20026;-51
2023/07/25 20:12:38;;;;;;;18.52;9.20;;;;;;;29.86;35.37;96485.31;10289188;28;20121;-53
2023/07/25 20:17:37;;;;;;;20.65;8.05;;;;;;;29.85;37.31;96507.66;10287836;28;20584;-49
2023/07/25 20:22:36;;;;;;;20.40;8.30;;;;;;;29.51;38.26;96510.16;10288378;28;20504;-51
2023/07/25 20:27:36;;;;;;;19.10;8.30;;;;;;;29.22;38.91;96491.56;10285943;28;20124;-52
2023/07/25 20:32:35;;;;;;;22.73;8.93;;;;;;;28.92;39.59;96496.19;10284627;28;20117;-52
2023/07/25 20:37:34;;;;;;;17.73;8.27;;;;;;;28.68;39.25;96494.03;10284721;28;20570;-52
2023/07/25 20:42:34;;;;;;;17.30;8.48;;;;;;;28.55;38.88;96480.13;10284151;28;20064;-52
2023/07/25 20:47:33;;;;;;;26.17;9.35;;;;;;;28.87;38.16;96467.25;10282922;28;20037;-51
2023/07/25 20:52:32;;;;;;;18.85;8.27;;;;;;;29.35;38.13;96461.88;10284237;28;20056;-51
2023/07/25 20:57:31;;;;;;;16.58;8.07;;;;;;;29.48;37.29;96465.84;10283447;28;20161;-50
2023/07/25 21:02:31;;;;;;;21.05;8.45;;;;;;;29.34;38.15;96461.00;10283940;28;20030;-50
2023/07/25 21:07:30;;;;;;;15.52;7.75;;;;;;;29.05;37.83;96461.97;10282284;28;20547;-50
2023/07/25 21:12:29;;;;;;;14.15;7.55;;;;;;;28.86;38.43;96456.75;10283679;28;20069;-52
2023/07/25 21:17:29;;;;;;;16.75;7.88;;;;;;;28.72;38.28;96463.41;10281970;28;20124;-49
2023/07/25 21:22:28;;;;;;;18.08;7.85;;;;;;;28.40;39.31;96451.22;10282804;28;20579;-50
2023/07/25 21:27:27;;;;;;;17.05;8.98;;;;;;;28.11;40.73;96447.81;10281718;28;20554;-49
2023/07/25 21:32:26;;;;;;;17.67;7.93;;;;;;;28.04;40.30;96444.81;10282733;28;20053;-51
2023/07/25 21:37:25;;;;;;;15.80;7.90;;;;;;;28.16;39.88;96430.38;10282244;28;20137;-51
2023/07/25 21:42:24;;;;;;;16.00;8.05;;;;;;;28.31;39.47;96414.75;10283927;28;20048;-52
2023/07/25 21:47:23;;;;;;;25.63;8.90;;;;;;;28.65;38.95;96409.72;10281526;28;20112;-51
2023/07/25 21:52:22;;;;;;;21.75;8.70;;;;;;;29.05;38.72;96395.19;10281393;28;20034;-52
2023/07/25 21:57:21;;;;;;;27.65;8.35;;;;;;;29.40;38.04;96404.28;10278428;28;20112;-52
2023/07/25 22:02:23;;;;;;;20.55;8.80;;;;;;;29.65;38.05;96391.16;10275461;28;20033;-53
2023/07/25 22:07:21;;;;;;;18.35;8.25;;;;;;;29.66;37.48;96358.91;10280960;28;20570;-51
2023/07/25 22:12:20;;;;;;;23.27;8.55;;;;;;;30.04;37.49;96393.47;10277190;28;20519;-52
2023/07/25 22:17:20;;;;;;;21.17;8.48;;;;;;;30.22;36.91;96394.28;10275818;28;20052;-51
2023/07/25 22:22:19;;;;;;;19.80;8.18;;;;;;;29.92;36.57;96316.16;10278747;28;20237;-50
2023/07/25 22:27:18;;;;;;;18.08;7.78;;;;;;;30.49;36.43;96397.81;10278696;28;20120;-50
2023/07/25 22:32:17;;;;;;;23.45;7.95;;;;;;;30.50;36.32;96376.25;10282508;28;20327;-52
2023/07/25 22:37:16;;;;;;;20.15;8.13;;;;;;;30.31;36.21;96330.94;10283897;28;20045;-51
2023/07/25 22:42:15;;;;;;;20.10;8.25;;;;;;;30.68;35.48;96372.63;10283666;28;20084;-52
2023/07/25 22:47:14;;;;;;;30.20;8.40;;;;;;;30.64;35.36;96352.53;10282953;28;20065;-50
2023/07/25 22:52:13;;;;;;;21.10;8.05;;;;;;;30.75;35.44;96358.44;10283534;28;20046;-50